sensor_id;sensor_type;location;lat;lon;timestamp;temperature;humidity
14489;DHT22;7330;50.804;4.550;2022-11-18T00:03:26;10.40;99.90
14489;DHT22;7330;50.804;4.550;2022-11-18T00:05:53;10.40;99.90
14489;DHT22;7330;50.804;4.550;2022-11-18T00:08:20;10.40;99.90
14489;DHT22;7330;50.804;4.550;2022-11-18T00:13:15;10.40;99.90
14489;DHT22;7330;50.804;4.550;2022-11-18T00:16:00;10.40;99.90
14489;DHT22;7330;50.804;4.550;2022-11-18T00:18:28;10.40;99.90
14489;DHT22;7330;50.804;4.550;2022-11-18T00:23:25;10.40;99.90
14489;DHT22;7330;50.804;4.550;2022-11-18T00:25:52;10.40;99.90
14489;DHT22;7330;50.804;4.550;2022-11-18T00:30:46;10.50;99.90
14489;DHT22;7330;50.804;4.550;2022-11-18T00:33:12;10.50;99.90
14489;DHT22;7330;50.804;4.550;2022-11-18T00:35:40;10.50;99.90
14489;DHT22;7330;50.804;4.550;2022-11-18T00:38:07;10.50;99.90
14489;DHT22;7330;50.804;4.550;2022-11-18T00:40:35;10.50;99.90
14489;DHT22;7330;50.804;4.550;2022-11-18T00:43:02;10.50;99.90
14489;DHT22;7330;50.804;4.550;2022-11-18T00:45:27;10.60;99.90
14489;DHT22;7330;50.804;4.550;2022-11-18T00:47:54;10.60;99.90
14489;DHT22;7330;50.804;4.550;2022-11-18T00:50:21;10.60;99.90
14489;DHT22;7330;50.804;4.550;2022-11-18T00:52:49;10.60;99.90
14489;DHT22;7330;50.804;4.550;2022-11-18T00:55:16;10.60;99.90
14489;DHT22;7330;50.804;4.550;2022-11-18T00:57:42;10.60;99.90
14489;DHT22;7330;50.804;4.550;2022-11-18T01:00:09;10.60;99.90
14489;DHT22;7330;50.804;4.550;2022-11-18T01:02:36;10.60;99.90
14489;DHT22;7330;50.804;4.550;2022-11-18T01:05:03;10.60;99.90
14489;DHT22;7330;50.804;4.550;2022-11-18T01:07:30;10.60;99.90
14489;DHT22;7330;50.804;4.550;2022-11-18T01:09:58;10.60;99.90
14489;DHT22;7330;50.804;4.550;2022-11-18T01:12:25;10.70;99.90
14489;DHT22;7330;50.804;4.550;2022-11-18T01:15:12;10.70;99.90
14489;DHT22;7330;50.804;4.550;2022-11-18T01:17:38;10.70;99.90
14489;DHT22;7330;50.804;4.550;2022-11-18T01:20:05;10.70;99.90
14489;DHT22;7330;50.804;4.550;2022-11-18T01:25:01;10.70;99.90
14489;DHT22;7330;50.804;4.550;2022-11-18T01:27:27;10.70;99.90
14489;DHT22;7330;50.804;4.550;2022-11-18T01:29:54;10.70;99.90
14489;DHT22;7330;50.804;4.550;2022-11-18T01:32:21;10.70;99.90
14489;DHT22;7330;50.804;4.550;2022-11-18T01:34:48;10.80;99.90
14489;DHT22;7330;50.804;4.550;2022-11-18T01:37:14;10.80;99.90
14489;DHT22;7330;50.804;4.550;2022-11-18T01:39:41;10.80;99.90
14489;DHT22;7330;50.804;4.550;2022-11-18T01:42:11;10.70;99.90
14489;DHT22;7330;50.804;4.550;2022-11-18T01:49:33;10.80;99.90
14489;DHT22;7330;50.804;4.550;2022-11-18T01:52:00;10.80;99.90
14489;DHT22;7330;50.804;4.550;2022-11-18T01:54:27;10.70;99.90
14489;DHT22;7330;50.804;4.550;2022-11-18T01:56:57;10.70;99.90
14489;DHT22;7330;50.804;4.550;2022-11-18T01:59:26;10.70;99.90
14489;DHT22;7330;50.804;4.550;2022-11-18T02:01:55;10.80;99.90
14489;DHT22;7330;50.804;4.550;2022-11-18T02:04:23;10.70;99.90
14489;DHT22;7330;50.804;4.550;2022-11-18T02:06:50;10.70;99.90
14489;DHT22;7330;50.804;4.550;2022-11-18T02:11:44;10.70;99.90
14489;DHT22;7330;50.804;4.550;2022-11-18T02:14:19;10.70;99.90
14489;DHT22;7330;50.804;4.550;2022-11-18T02:16:54;10.60;99.90
14489;DHT22;7330;50.804;4.550;2022-11-18T02:21:54;10.60;99.90
14489;DHT22;7330;50.804;4.550;2022-11-18T02:24:27;10.60;99.90
14489;DHT22;7330;50.804;4.550;2022-11-18T02:29:27;10.60;99.90
14489;DHT22;7330;50.804;4.550;2022-11-18T02:34:30;10.50;99.90
14489;DHT22;7330;50.804;4.550;2022-11-18T02:41:53;10.50;99.90
14489;DHT22;7330;50.804;4.550;2022-11-18T02:44:21;10.40;99.90
14489;DHT22;7330;50.804;4.550;2022-11-18T02:46:52;10.40;99.90
14489;DHT22;7330;50.804;4.550;2022-11-18T02:49:21;10.40;99.90
14489;DHT22;7330;50.804;4.550;2022-11-18T02:51:49;10.40;99.90
14489;DHT22;7330;50.804;4.550;2022-11-18T02:56:44;10.40;99.90
14489;DHT22;7330;50.804;4.550;2022-11-18T02:59:12;10.30;99.90
14489;DHT22;7330;50.804;4.550;2022-11-18T03:01:42;10.40;99.90
14489;DHT22;7330;50.804;4.550;2022-11-18T03:04:10;10.30;99.90
14489;DHT22;7330;50.804;4.550;2022-11-18T03:06:39;10.30;99.90
14489;DHT22;7330;50.804;4.550;2022-11-18T03:14:06;10.20;99.90
14489;DHT22;7330;50.804;4.550;2022-11-18T03:16:35;10.20;99.90
14489;DHT22;7330;50.804;4.550;2022-11-18T03:19:06;10.20;99.90
14489;DHT22;7330;50.804;4.550;2022-11-18T03:21:37;10.20;99.90
14489;DHT22;7330;50.804;4.550;2022-11-18T03:31:26;10.10;99.90
14489;DHT22;7330;50.804;4.550;2022-11-18T03:33:55;10.10;99.90
14489;DHT22;7330;50.804;4.550;2022-11-18T03:36:23;10.10;99.90
14489;DHT22;7330;50.804;4.550;2022-11-18T03:41:20;10.10;99.90
14489;DHT22;7330;50.804;4.550;2022-11-18T03:43:50;10.00;99.90
14489;DHT22;7330;50.804;4.550;2022-11-18T03:46:19;10.00;99.90
14489;DHT22;7330;50.804;4.550;2022-11-18T03:48:48;10.00;99.90
14489;DHT22;7330;50.804;4.550;2022-11-18T03:51:17;9.90;99.90
14489;DHT22;7330;50.804;4.550;2022-11-18T03:53:46;9.90;99.90
14489;DHT22;7330;50.804;4.550;2022-11-18T03:56:15;9.90;99.90
14489;DHT22;7330;50.804;4.550;2022-11-18T03:58:46;9.80;99.90
14489;DHT22;7330;50.804;4.550;2022-11-18T04:01:16;9.80;99.90
14489;DHT22;7330;50.804;4.550;2022-11-18T04:03:45;9.80;99.90
14489;DHT22;7330;50.804;4.550;2022-11-18T04:06:14;9.70;99.90
14489;DHT22;7330;50.804;4.550;2022-11-18T04:08:43;9.70;99.90
14489;DHT22;7330;50.804;4.550;2022-11-18T04:11:12;9.70;99.90
14489;DHT22;7330;50.804;4.550;2022-11-18T04:14:01;9.70;99.90
14489;DHT22;7330;50.804;4.550;2022-11-18T04:16:29;9.70;99.90
14489;DHT22;7330;50.804;4.550;2022-11-18T04:18:56;9.70;99.90
14489;DHT22;7330;50.804;4.550;2022-11-18T04:21:23;9.70;99.90
14489;DHT22;7330;50.804;4.550;2022-11-18T04:26:17;9.70;99.90
14489;DHT22;7330;50.804;4.550;2022-11-18T04:28:43;9.70;99.90
14489;DHT22;7330;50.804;4.550;2022-11-18T04:31:11;9.70;99.90
14489;DHT22;7330;50.804;4.550;2022-11-18T04:33:38;9.70;99.90
14489;DHT22;7330;50.804;4.550;2022-11-18T04:36:05;9.60;99.90
14489;DHT22;7330;50.804;4.550;2022-11-18T04:38:32;9.60;99.90
14489;DHT22;7330;50.804;4.550;2022-11-18T04:43:32;9.50;99.90
14489;DHT22;7330;50.804;4.550;2022-11-18T04:48:27;9.50;99.90
14489;DHT22;7330;50.804;4.550;2022-11-18T04:50:55;9.50;99.90
14489;DHT22;7330;50.804;4.550;2022-11-18T04:53:22;9.50;99.90
14489;DHT22;7330;50.804;4.550;2022-11-18T04:55:49;9.40;99.90
14489;DHT22;7330;50.804;4.550;2022-11-18T05:00:42;9.40;99.90
14489;DHT22;7330;50.804;4.550;2022-11-18T05:03:14;9.40;99.90
14489;DHT22;7330;50.804;4.550;2022-11-18T05:05:42;9.30;99.90
14489;DHT22;7330;50.804;4.550;2022-11-18T05:10:36;9.30;99.90
14489;DHT22;7330;50.804;4.550;2022-11-18T05:13:03;9.30;99.90
14489;DHT22;7330;50.804;4.550;2022-11-18T05:15:29;9.30;99.90
14489;DHT22;7330;50.804;4.550;2022-11-18T05:20:22;9.30;99.90
14489;DHT22;7330;50.804;4.550;2022-11-18T05:22:51;9.20;99.90
14489;DHT22;7330;50.804;4.550;2022-11-18T05:25:18;9.20;99.90
14489;DHT22;7330;50.804;4.550;2022-11-18T05:27:44;9.20;99.90
14489;DHT22;7330;50.804;4.550;2022-11-18T05:32:56;9.10;99.90
14489;DHT22;7330;50.804;4.550;2022-11-18T05:37:51;9.10;99.90
14489;DHT22;7330;50.804;4.550;2022-11-18T05:42:44;9.10;99.90
14489;DHT22;7330;50.804;4.550;2022-11-18T05:45:29;9.00;99.90
14489;DHT22;7330;50.804;4.550;2022-11-18T05:47:56;9.10;99.90
14489;DHT22;7330;50.804;4.550;2022-11-18T05:52:54;9.10;99.90
14489;DHT22;7330;50.804;4.550;2022-11-18T05:55:21;9.00;99.90
14489;DHT22;7330;50.804;4.550;2022-11-18T05:57:49;9.00;99.90
14489;DHT22;7330;50.804;4.550;2022-11-18T06:00:16;9.00;99.90
14489;DHT22;7330;50.804;4.550;2022-11-18T06:02:43;9.00;99.90
14489;DHT22;7330;50.804;4.550;2022-11-18T06:05:10;9.00;99.90
14489;DHT22;7330;50.804;4.550;2022-11-18T06:07:38;9.00;99.90
14489;DHT22;7330;50.804;4.550;2022-11-18T06:10:07;9.00;99.90
14489;DHT22;7330;50.804;4.550;2022-11-18T06:12:36;9.00;99.90
14489;DHT22;7330;50.804;4.550;2022-11-18T06:15:05;9.00;99.90
14489;DHT22;7330;50.804;4.550;2022-11-18T06:17:34;8.90;99.90
14489;DHT22;7330;50.804;4.550;2022-11-18T06:20:03;8.90;99.90
14489;DHT22;7330;50.804;4.550;2022-11-18T06:22:30;8.90;99.90
14489;DHT22;7330;50.804;4.550;2022-11-18T06:27:25;8.90;99.90
14489;DHT22;7330;50.804;4.550;2022-11-18T06:29:52;8.80;99.90
14489;DHT22;7330;50.804;4.550;2022-11-18T06:32:18;8.80;99.90
14489;DHT22;7330;50.804;4.550;2022-11-18T06:34:45;8.80;99.90
14489;DHT22;7330;50.804;4.550;2022-11-18T06:37:12;8.90;99.90
14489;DHT22;7330;50.804;4.550;2022-11-18T06:39:39;8.80;99.90
14489;DHT22;7330;50.804;4.550;2022-11-18T06:42:06;8.80;99.90
14489;DHT22;7330;50.804;4.550;2022-11-18T06:44:34;8.80;99.90
14489;DHT22;7330;50.804;4.550;2022-11-18T06:49:28;8.80;99.90
14489;DHT22;7330;50.804;4.550;2022-11-18T06:51:54;8.80;99.90
14489;DHT22;7330;50.804;4.550;2022-11-18T06:54:21;8.80;99.90
14489;DHT22;7330;50.804;4.550;2022-11-18T06:56:48;8.80;99.90
14489;DHT22;7330;50.804;4.550;2022-11-18T06:59:14;8.80;99.90
14489;DHT22;7330;50.804;4.550;2022-11-18T07:01:49;8.80;99.90
14489;DHT22;7330;50.804;4.550;2022-11-18T07:04:17;8.90;99.90
14489;DHT22;7330;50.804;4.550;2022-11-18T07:06:44;8.80;99.90
14489;DHT22;7330;50.804;4.550;2022-11-18T07:11:37;8.80;99.90
14489;DHT22;7330;50.804;4.550;2022-11-18T07:14:05;8.80;99.90
14489;DHT22;7330;50.804;4.550;2022-11-18T07:16:32;8.80;99.90
14489;DHT22;7330;50.804;4.550;2022-11-18T07:19:06;8.70;99.90
14489;DHT22;7330;50.804;4.550;2022-11-18T07:21:33;8.70;99.90
14489;DHT22;7330;50.804;4.550;2022-11-18T07:23:59;8.80;99.90
14489;DHT22;7330;50.804;4.550;2022-11-18T07:26:26;8.80;99.90
14489;DHT22;7330;50.804;4.550;2022-11-18T07:28:53;8.80;99.90
14489;DHT22;7330;50.804;4.550;2022-11-18T07:33:47;8.90;99.90
14489;DHT22;7330;50.804;4.550;2022-11-18T07:36:15;8.90;99.90
14489;DHT22;7330;50.804;4.550;2022-11-18T07:38:48;9.00;99.90
14489;DHT22;7330;50.804;4.550;2022-11-18T07:41:15;9.00;99.90
14489;DHT22;7330;50.804;4.550;2022-11-18T07:43:42;9.10;99.90
14489;DHT22;7330;50.804;4.550;2022-11-18T07:46:10;9.00;99.90
14489;DHT22;7330;50.804;4.550;2022-11-18T07:48:37;9.10;99.90
14489;DHT22;7330;50.804;4.550;2022-11-18T07:51:04;9.10;99.90
14489;DHT22;7330;50.804;4.550;2022-11-18T07:58:27;9.20;99.90
14489;DHT22;7330;50.804;4.550;2022-11-18T08:00:53;9.30;99.90
14489;DHT22;7330;50.804;4.550;2022-11-18T08:03:23;9.30;99.90
14489;DHT22;7330;50.804;4.550;2022-11-18T08:05:50;9.40;99.90
14489;DHT22;7330;50.804;4.550;2022-11-18T08:08:17;9.40;99.90
14489;DHT22;7330;50.804;4.550;2022-11-18T08:10:43;9.40;99.90
14489;DHT22;7330;50.804;4.550;2022-11-18T08:13:10;9.40;99.90
14489;DHT22;7330;50.804;4.550;2022-11-18T08:15:39;9.50;99.90
14489;DHT22;7330;50.804;4.550;2022-11-18T08:18:06;9.50;99.90
14489;DHT22;7330;50.804;4.550;2022-11-18T08:23:00;9.60;99.90
14489;DHT22;7330;50.804;4.550;2022-11-18T08:25:27;9.70;99.90
14489;DHT22;7330;50.804;4.550;2022-11-18T08:27:54;9.70;99.90
14489;DHT22;7330;50.804;4.550;2022-11-18T08:30:21;9.70;99.90
14489;DHT22;7330;50.804;4.550;2022-11-18T08:32:49;9.80;99.90
14489;DHT22;7330;50.804;4.550;2022-11-18T08:35:16;9.80;99.90
14489;DHT22;7330;50.804;4.550;2022-11-18T08:40:10;9.90;99.90
14489;DHT22;7330;50.804;4.550;2022-11-18T08:50:01;10.00;99.90
14489;DHT22;7330;50.804;4.550;2022-11-18T08:52:28;10.00;99.90
14489;DHT22;7330;50.804;4.550;2022-11-18T08:54:55;10.10;99.90
14489;DHT22;7330;50.804;4.550;2022-11-18T08:57:21;10.10;99.90
14489;DHT22;7330;50.804;4.550;2022-11-18T09:02:16;10.20;99.90
14489;DHT22;7330;50.804;4.550;2022-11-18T09:07:11;10.30;99.90
14489;DHT22;7330;50.804;4.550;2022-11-18T09:09:38;10.30;99.90
14489;DHT22;7330;50.804;4.550;2022-11-18T09:12:05;10.40;99.90
14489;DHT22;7330;50.804;4.550;2022-11-18T09:14:33;10.40;99.90
14489;DHT22;7330;50.804;4.550;2022-11-18T09:17:00;10.50;99.90
14489;DHT22;7330;50.804;4.550;2022-11-18T09:19:27;10.50;99.90
14489;DHT22;7330;50.804;4.550;2022-11-18T09:21:53;10.60;99.90
14489;DHT22;7330;50.804;4.550;2022-11-18T09:24:22;10.60;99.90
14489;DHT22;7330;50.804;4.550;2022-11-18T09:31:49;10.70;99.90
14489;DHT22;7330;50.804;4.550;2022-11-18T09:34:16;10.70;99.90
14489;DHT22;7330;50.804;4.550;2022-11-18T09:36:43;10.70;99.90
14489;DHT22;7330;50.804;4.550;2022-11-18T09:39:10;10.80;99.90
14489;DHT22;7330;50.804;4.550;2022-11-18T09:41:41;10.80;99.90
14489;DHT22;7330;50.804;4.550;2022-11-18T09:44:12;10.90;99.90
14489;DHT22;7330;50.804;4.550;2022-11-18T09:46:47;10.90;99.90
14489;DHT22;7330;50.804;4.550;2022-11-18T09:49:19;11.00;99.90
14489;DHT22;7330;50.804;4.550;2022-11-18T09:51:48;11.00;99.90
14489;DHT22;7330;50.804;4.550;2022-11-18T09:59:14;11.10;99.90
14489;DHT22;7330;50.804;4.550;2022-11-18T10:01:41;11.20;99.90
14489;DHT22;7330;50.804;4.550;2022-11-18T10:04:11;11.20;99.90
14489;DHT22;7330;50.804;4.550;2022-11-18T10:06:38;11.30;99.90
14489;DHT22;7330;50.804;4.550;2022-11-18T10:09:09;11.30;99.90
14489;DHT22;7330;50.804;4.550;2022-11-18T10:11:39;11.40;99.90
14489;DHT22;7330;50.804;4.550;2022-11-18T10:14:11;11.40;99.90
14489;DHT22;7330;50.804;4.550;2022-11-18T10:16:44;11.50;99.90
14489;DHT22;7330;50.804;4.550;2022-11-18T10:19:16;11.50;99.90
14489;DHT22;7330;50.804;4.550;2022-11-18T10:24:14;11.60;99.90
14489;DHT22;7330;50.804;4.550;2022-11-18T10:26:43;11.60;99.90
14489;DHT22;7330;50.804;4.550;2022-11-18T10:29:09;11.70;99.90
14489;DHT22;7330;50.804;4.550;2022-11-18T10:31:36;11.70;99.90
14489;DHT22;7330;50.804;4.550;2022-11-18T10:36:32;11.70;99.90
14489;DHT22;7330;50.804;4.550;2022-11-18T10:41:45;11.80;99.90
14489;DHT22;7330;50.804;4.550;2022-11-18T10:47:23;11.80;99.90
14489;DHT22;7330;50.804;4.550;2022-11-18T10:49:50;11.90;99.90
14489;DHT22;7330;50.804;4.550;2022-11-18T10:52:19;11.90;99.90
14489;DHT22;7330;50.804;4.550;2022-11-18T10:57:14;11.90;99.90
14489;DHT22;7330;50.804;4.550;2022-11-18T10:59:44;11.90;99.90
14489;DHT22;7330;50.804;4.550;2022-11-18T11:04:39;12.00;99.90
14489;DHT22;7330;50.804;4.550;2022-11-18T11:07:16;12.00;99.90
14489;DHT22;7330;50.804;4.550;2022-11-18T11:09:44;12.00;99.90
14489;DHT22;7330;50.804;4.550;2022-11-18T11:12:24;12.00;99.90
14489;DHT22;7330;50.804;4.550;2022-11-18T11:14:53;12.00;99.90
14489;DHT22;7330;50.804;4.550;2022-11-18T11:17:25;12.00;99.90
14489;DHT22;7330;50.804;4.550;2022-11-18T11:19:55;12.00;99.90
14489;DHT22;7330;50.804;4.550;2022-11-18T11:24:53;12.10;99.90
14489;DHT22;7330;50.804;4.550;2022-11-18T11:27:27;12.10;99.90
14489;DHT22;7330;50.804;4.550;2022-11-18T11:30:06;12.10;99.90
14489;DHT22;7330;50.804;4.550;2022-11-18T11:32:38;12.10;99.90
14489;DHT22;7330;50.804;4.550;2022-11-18T11:35:10;12.20;99.90
14489;DHT22;7330;50.804;4.550;2022-11-18T11:37:40;12.10;99.90
14489;DHT22;7330;50.804;4.550;2022-11-18T11:40:18;12.10;99.90
14489;DHT22;7330;50.804;4.550;2022-11-18T11:42:48;12.10;99.90
14489;DHT22;7330;50.804;4.550;2022-11-18T11:45:19;12.10;99.90
14489;DHT22;7330;50.804;4.550;2022-11-18T11:47:55;12.10;99.90
14489;DHT22;7330;50.804;4.550;2022-11-18T11:50:27;12.20;99.90
14489;DHT22;7330;50.804;4.550;2022-11-18T11:52:59;12.20;99.90
14489;DHT22;7330;50.804;4.550;2022-11-18T11:58:03;12.20;99.90
14489;DHT22;7330;50.804;4.550;2022-11-18T12:03:03;12.20;99.90
14489;DHT22;7330;50.804;4.550;2022-11-18T12:05:32;12.30;99.90
14489;DHT22;7330;50.804;4.550;2022-11-18T12:10:28;12.30;99.90
14489;DHT22;7330;50.804;4.550;2022-11-18T12:13:13;12.30;99.90
14489;DHT22;7330;50.804;4.550;2022-11-18T12:15:43;12.30;99.90
14489;DHT22;7330;50.804;4.550;2022-11-18T12:18:14;12.30;99.90
14489;DHT22;7330;50.804;4.550;2022-11-18T12:20:44;12.40;99.90
14489;DHT22;7330;50.804;4.550;2022-11-18T12:23:12;12.30;99.90
14489;DHT22;7330;50.804;4.550;2022-11-18T12:25:48;12.40;99.90
14489;DHT22;7330;50.804;4.550;2022-11-18T12:30:44;12.30;99.90
14489;DHT22;7330;50.804;4.550;2022-11-18T12:33:11;12.30;99.90
14489;DHT22;7330;50.804;4.550;2022-11-18T12:38:10;12.40;99.90
14489;DHT22;7330;50.804;4.550;2022-11-18T12:40:52;12.40;99.90
14489;DHT22;7330;50.804;4.550;2022-11-18T12:48:55;12.40;99.90
14489;DHT22;7330;50.804;4.550;2022-11-18T12:59:27;12.40;99.90
14489;DHT22;7330;50.804;4.550;2022-11-18T13:02:01;12.50;99.90
14489;DHT22;7330;50.804;4.550;2022-11-18T13:04:29;12.40;99.90
14489;DHT22;7330;50.804;4.550;2022-11-18T13:09:25;12.50;99.90
14489;DHT22;7330;50.804;4.550;2022-11-18T13:11:53;12.40;99.90
14489;DHT22;7330;50.804;4.550;2022-11-18T13:14:22;12.50;99.90
14489;DHT22;7330;50.804;4.550;2022-11-18T13:17:23;12.40;99.90
14489;DHT22;7330;50.804;4.550;2022-11-18T13:20:19;12.40;99.90
14489;DHT22;7330;50.804;4.550;2022-11-18T13:25:30;12.40;99.90
14489;DHT22;7330;50.804;4.550;2022-11-18T13:27:59;12.40;99.90
14489;DHT22;7330;50.804;4.550;2022-11-18T13:30:27;12.40;99.90
14489;DHT22;7330;50.804;4.550;2022-11-18T13:32:56;12.40;99.90
14489;DHT22;7330;50.804;4.550;2022-11-18T13:35:25;12.40;99.90
14489;DHT22;7330;50.804;4.550;2022-11-18T13:37:54;12.40;99.90
14489;DHT22;7330;50.804;4.550;2022-11-18T13:42:48;12.40;99.90
14489;DHT22;7330;50.804;4.550;2022-11-18T13:50:15;12.50;99.90
14489;DHT22;7330;50.804;4.550;2022-11-18T13:52:45;12.50;99.90
14489;DHT22;7330;50.804;4.550;2022-11-18T13:55:14;12.50;99.90
14489;DHT22;7330;50.804;4.550;2022-11-18T13:57:44;12.50;99.90
14489;DHT22;7330;50.804;4.550;2022-11-18T14:00:18;12.50;99.90
14489;DHT22;7330;50.804;4.550;2022-11-18T14:02:47;12.60;99.90
14489;DHT22;7330;50.804;4.550;2022-11-18T14:05:18;12.50;99.90
14489;DHT22;7330;50.804;4.550;2022-11-18T14:15:12;12.60;99.90
14489;DHT22;7330;50.804;4.550;2022-11-18T14:17:48;12.60;99.90
14489;DHT22;7330;50.804;4.550;2022-11-18T14:20:15;12.60;99.90
14489;DHT22;7330;50.804;4.550;2022-11-18T14:22:42;12.50;99.90
14489;DHT22;7330;50.804;4.550;2022-11-18T14:25:14;12.50;99.90
14489;DHT22;7330;50.804;4.550;2022-11-18T14:27:42;12.50;99.90
14489;DHT22;7330;50.804;4.550;2022-11-18T14:30:24;12.50;99.90
14489;DHT22;7330;50.804;4.550;2022-11-18T14:33:01;12.40;99.90
14489;DHT22;7330;50.804;4.550;2022-11-18T14:35:28;12.50;99.90
14489;DHT22;7330;50.804;4.550;2022-11-18T14:37:55;12.40;99.90
14489;DHT22;7330;50.804;4.550;2022-11-18T14:45:16;12.50;99.90
14489;DHT22;7330;50.804;4.550;2022-11-18T14:50:12;12.50;99.90
14489;DHT22;7330;50.804;4.550;2022-11-18T14:52:39;12.50;99.90
14489;DHT22;7330;50.804;4.550;2022-11-18T14:55:06;12.50;99.90
14489;DHT22;7330;50.804;4.550;2022-11-18T14:57:32;12.60;99.90
14489;DHT22;7330;50.804;4.550;2022-11-18T15:04:53;12.50;99.90
14489;DHT22;7330;50.804;4.550;2022-11-18T15:07:21;12.60;99.90
14489;DHT22;7330;50.804;4.550;2022-11-18T15:09:48;12.60;99.90
14489;DHT22;7330;50.804;4.550;2022-11-18T15:12:15;12.50;99.90
14489;DHT22;7330;50.804;4.550;2022-11-18T15:17:09;12.60;99.90
14489;DHT22;7330;50.804;4.550;2022-11-18T15:19:37;12.60;99.90
14489;DHT22;7330;50.804;4.550;2022-11-18T15:22:05;12.60;99.90
14489;DHT22;7330;50.804;4.550;2022-11-18T15:27:00;12.50;99.90
14489;DHT22;7330;50.804;4.550;2022-11-18T15:31:56;12.50;99.90
14489;DHT22;7330;50.804;4.550;2022-11-18T15:34:24;12.40;99.90
14489;DHT22;7330;50.804;4.550;2022-11-18T15:41:44;12.40;99.90
14489;DHT22;7330;50.804;4.550;2022-11-18T15:46:40;12.40;99.90
14489;DHT22;7330;50.804;4.550;2022-11-18T15:49:09;12.40;99.90
14489;DHT22;7330;50.804;4.550;2022-11-18T15:51:37;12.40;99.90
14489;DHT22;7330;50.804;4.550;2022-11-18T15:54:04;12.40;99.90
14489;DHT22;7330;50.804;4.550;2022-11-18T15:56:31;12.30;99.90
14489;DHT22;7330;50.804;4.550;2022-11-18T15:58:59;12.30;99.90
14489;DHT22;7330;50.804;4.550;2022-11-18T16:01:26;12.30;99.90
14489;DHT22;7330;50.804;4.550;2022-11-18T16:03:54;12.30;99.90
14489;DHT22;7330;50.804;4.550;2022-11-18T16:06:21;12.30;99.90
14489;DHT22;7330;50.804;4.550;2022-11-18T16:08:48;12.30;99.90
14489;DHT22;7330;50.804;4.550;2022-11-18T16:16:27;12.30;99.90
14489;DHT22;7330;50.804;4.550;2022-11-18T16:18:57;12.30;99.90
14489;DHT22;7330;50.804;4.550;2022-11-18T16:23:53;12.20;99.90
14489;DHT22;7330;50.804;4.550;2022-11-18T16:26:20;12.30;99.90
14489;DHT22;7330;50.804;4.550;2022-11-18T16:28:47;12.20;99.90
14489;DHT22;7330;50.804;4.550;2022-11-18T16:31:13;12.20;99.90
14489;DHT22;7330;50.804;4.550;2022-11-18T16:34:03;12.20;99.90
14489;DHT22;7330;50.804;4.550;2022-11-18T16:36:29;12.30;99.90
14489;DHT22;7330;50.804;4.550;2022-11-18T16:38:56;12.20;99.90
14489;DHT22;7330;50.804;4.550;2022-11-18T16:46:24;12.20;99.90
14489;DHT22;7330;50.804;4.550;2022-11-18T16:48:51;12.20;99.90
14489;DHT22;7330;50.804;4.550;2022-11-18T16:56:13;12.20;99.90
14489;DHT22;7330;50.804;4.550;2022-11-18T17:01:07;12.10;99.90
14489;DHT22;7330;50.804;4.550;2022-11-18T17:06:01;12.10;99.90
14489;DHT22;7330;50.804;4.550;2022-11-18T17:08:28;12.10;99.90
14489;DHT22;7330;50.804;4.550;2022-11-18T17:11:02;12.10;99.90
14489;DHT22;7330;50.804;4.550;2022-11-18T17:13:31;12.10;99.90
14489;DHT22;7330;50.804;4.550;2022-11-18T17:15:57;12.10;99.90
14489;DHT22;7330;50.804;4.550;2022-11-18T17:18:24;12.00;99.90
14489;DHT22;7330;50.804;4.550;2022-11-18T17:20:51;12.10;99.90
14489;DHT22;7330;50.804;4.550;2022-11-18T17:25:45;12.10;99.90
14489;DHT22;7330;50.804;4.550;2022-11-18T17:28:12;12.00;99.90
14489;DHT22;7330;50.804;4.550;2022-11-18T17:30:40;12.00;99.90
14489;DHT22;7330;50.804;4.550;2022-11-18T17:35:33;12.00;99.90
14489;DHT22;7330;50.804;4.550;2022-11-18T17:38:00;12.00;99.90
14489;DHT22;7330;50.804;4.550;2022-11-18T17:40:27;12.00;99.90
14489;DHT22;7330;50.804;4.550;2022-11-18T17:42:54;12.00;99.90
14489;DHT22;7330;50.804;4.550;2022-11-18T17:45:21;12.00;99.90
14489;DHT22;7330;50.804;4.550;2022-11-18T17:47:49;12.00;99.90
14489;DHT22;7330;50.804;4.550;2022-11-18T17:50:16;12.00;99.90
14489;DHT22;7330;50.804;4.550;2022-11-18T17:55:16;12.00;99.90
14489;DHT22;7330;50.804;4.550;2022-11-18T17:57:44;12.00;99.90
14489;DHT22;7330;50.804;4.550;2022-11-18T18:00:11;12.00;99.90
14489;DHT22;7330;50.804;4.550;2022-11-18T18:02:38;12.00;99.90
14489;DHT22;7330;50.804;4.550;2022-11-18T18:05:07;12.00;99.90
14489;DHT22;7330;50.804;4.550;2022-11-18T18:07:33;12.00;99.90
14489;DHT22;7330;50.804;4.550;2022-11-18T18:10:00;12.00;99.90
14489;DHT22;7330;50.804;4.550;2022-11-18T18:12:27;12.00;99.90
14489;DHT22;7330;50.804;4.550;2022-11-18T18:15:11;12.00;99.90
14489;DHT22;7330;50.804;4.550;2022-11-18T18:17:38;12.00;99.90
14489;DHT22;7330;50.804;4.550;2022-11-18T18:20:07;12.00;99.90
14489;DHT22;7330;50.804;4.550;2022-11-18T18:22:34;12.00;99.90
14489;DHT22;7330;50.804;4.550;2022-11-18T18:27:28;11.90;99.90
14489;DHT22;7330;50.804;4.550;2022-11-18T18:34:49;11.90;99.90
14489;DHT22;7330;50.804;4.550;2022-11-18T18:39:44;11.90;99.90
14489;DHT22;7330;50.804;4.550;2022-11-18T18:47:24;11.90;99.90
14489;DHT22;7330;50.804;4.550;2022-11-18T18:52:17;11.90;99.90
14489;DHT22;7330;50.804;4.550;2022-11-18T18:54:45;11.90;99.90
14489;DHT22;7330;50.804;4.550;2022-11-18T18:57:12;11.90;99.90
14489;DHT22;7330;50.804;4.550;2022-11-18T18:59:39;11.90;99.90
14489;DHT22;7330;50.804;4.550;2022-11-18T19:02:06;11.90;99.90
14489;DHT22;7330;50.804;4.550;2022-11-18T19:07:00;11.90;99.90
14489;DHT22;7330;50.804;4.550;2022-11-18T19:09:27;11.90;99.90
14489;DHT22;7330;50.804;4.550;2022-11-18T19:11:55;11.90;99.90
14489;DHT22;7330;50.804;4.550;2022-11-18T19:14:39;11.90;99.90
14489;DHT22;7330;50.804;4.550;2022-11-18T19:17:06;11.90;99.90
14489;DHT22;7330;50.804;4.550;2022-11-18T19:19:33;11.90;99.90
14489;DHT22;7330;50.804;4.550;2022-11-18T19:22:18;11.90;99.90
14489;DHT22;7330;50.804;4.550;2022-11-18T19:24:45;11.90;99.90
14489;DHT22;7330;50.804;4.550;2022-11-18T19:27:13;11.90;99.90
14489;DHT22;7330;50.804;4.550;2022-11-18T19:29:40;11.90;99.90
14489;DHT22;7330;50.804;4.550;2022-11-18T19:34:33;11.90;99.90
14489;DHT22;7330;50.804;4.550;2022-11-18T19:37:00;11.90;99.90
14489;DHT22;7330;50.804;4.550;2022-11-18T19:39:27;11.90;99.90
14489;DHT22;7330;50.804;4.550;2022-11-18T19:41:54;11.90;99.90
14489;DHT22;7330;50.804;4.550;2022-11-18T19:44:22;11.90;99.90
14489;DHT22;7330;50.804;4.550;2022-11-18T19:46:49;11.90;99.90
14489;DHT22;7330;50.804;4.550;2022-11-18T19:49:15;11.90;99.90
14489;DHT22;7330;50.804;4.550;2022-11-18T19:51:42;11.90;99.90
14489;DHT22;7330;50.804;4.550;2022-11-18T19:59:03;11.80;99.90
14489;DHT22;7330;50.804;4.550;2022-11-18T20:01:31;11.90;99.90
14489;DHT22;7330;50.804;4.550;2022-11-18T20:06:26;11.80;99.90
14489;DHT22;7330;50.804;4.550;2022-11-18T20:08:53;11.80;99.90
14489;DHT22;7330;50.804;4.550;2022-11-18T20:11:20;11.80;99.90
14489;DHT22;7330;50.804;4.550;2022-11-18T20:13:47;11.70;99.90
14489;DHT22;7330;50.804;4.550;2022-11-18T20:16:15;11.70;99.90
14489;DHT22;7330;50.804;4.550;2022-11-18T20:18:44;11.70;99.90
14489;DHT22;7330;50.804;4.550;2022-11-18T20:21:12;11.60;99.90
14489;DHT22;7330;50.804;4.550;2022-11-18T20:23:40;11.60;99.90
14489;DHT22;7330;50.804;4.550;2022-11-18T20:26:07;11.60;99.90